Terminal Aerodrome Forecast
Issued by NWS Duluth, MN

Home | Current Version | Previous Version | Text Only | Print | Product List | Glossary On
Versions: 1 2 3 4 5 6 7 8 9 10 11 12 13 14 15 16 17 18 19 20 21 22 23 24 25 26 27 28 29 30 31 32
883
FTUS43 KDLH 110739 AAB
TAFDLH
TAF AMD
KDLH 110739Z 1108/1206 15007KT 1 1/2SM -SN OVC025
     FM111200 VRB02KT 2SM -SN OVC010
     FM111400 VRB03KT 4SM -SN OVC015
     FM111600 34008G16KT P6SM -SN BKN025
     FM111800 34013G22KT P6SM SCT030
     FM112000 34016G27KT P6SM SCT030=

USA.gov is the U.S. government's official web portal to all federal, state and local government web resources and services.